ジュネーヴ・コアントラン国際空港の過去48時間の天気

ジュネーヴ・コアントラン国際空港 (Geneve-Cointrin)

現在時刻: 11/21 13:19 CET (11/21 12:19 UTC) 以下の時間は現地時間です。

過去48時間のMETAR気象情報
時間 風向 風速(m/s) 視程 気温(℃) 湿度(%) 気圧(hPa) 天気現象
21 12:50 不定 1 8000m 6 81 1009
21 12:20 不定 1 8000m 6 81 1009
21 11:50 2 8000m 6 81 1010
21 11:20 不定 1 8000m 5 87 1010
21 10:50 不定 1 7000m 5 87 1010
21 10:20 北北東 2 7000m 5 87 1010
21 09:50 不定 1 7000m 5 87 1010
21 09:20 不定 1 7000m 5 87 1010
21 08:50 不定 1 7000m 5 87 1010
21 08:20 不定 1 8000m 5 87 1010
21 07:50 不定 1 8000m 5 87 1010
21 07:20 不定 1 7000m 5 87 1010
21 06:50 不定 1 7000m 5 87 1010
21 06:20 静穏 0 8000m 5 87 1010
21 05:50 不定 1 7000m 5 87 1010
21 05:20 1 8000m 5 87 1010
21 04:50 不定 1 8000m 5 87 1010
21 04:20 1 8000m 5 87 1010
21 03:50 不定 1 7000m 5 87 1010
21 03:20 不定 1 9000m 5 87 1010
21 02:50 不定 1 9000m 5 87 1011
21 02:20 北北東 1 10km以上 5 87 1011
21 01:50 不定 1 9000m 5 87 1011
21 01:20 不定 1 10km以上 5 81 1011
21 00:50 不定 1 10km以上 5 81 1011
21 00:20 不定 1 10km以上 5 81 1011
20 23:50 2 10km以上 5 81 1011
20 23:20 不定 2 10km以上 5 81 1011
20 22:50 2 10km以上 5 81 1011
20 22:20 北北東 2 10km以上 5 81 1011
20 21:50 1 10km以上 5 81 1011
20 21:20 不定 2 10km以上 5 81 1011
20 20:50 北北東 2 10km以上 5 81 1011
20 20:20 不定 1 10km以上 5 81 1012
20 19:50 不定 1 10km以上 6 76 1012
20 19:20 北北西 1 10km以上 6 76 1012
20 18:50 不定 1 10km以上 6 76 1012
20 18:20 不定 1 10km以上 6 76 1012
20 17:50 不定 1 10km以上 6 76 1012
20 17:20 北北東 2 10km以上 6 76 1012
20 16:50 不定 1 10km以上 6 76 1012
20 16:20 東北東 2 10km以上 6 76 1012
20 15:50 東北東 2 10km以上 6 76 1012
20 15:20 北東 2 10km以上 6 76 1012
20 14:50 東北東 3 10km以上 6 76 1012
20 14:20 北東 3 10km以上 6 76 1012
20 13:50 3 10km以上 6 70 1013
20 13:20 不定 2 10km以上 6 70 1013
20 12:50 不定 2 10km以上 6 70 1013
20 12:20 不定 1 10km以上 6 65 1013
20 11:50 不定 2 10km以上 6 70 1014
20 11:20 不定 1 10km以上 6 65 1014
20 10:50 不定 1 10km以上 5 70 1014
20 10:20 不定 2 10km以上 5 70 1014
20 09:50 不定 1 10km以上 5 70 1014
20 09:20 不定 1 10km以上 5 70 1014
20 08:50 不定 1 10km以上 4 75 1014
20 08:20 1 10km以上 4 75 1014
20 07:50 北北西 1 10km以上 4 81 1014
20 07:20 不定 1 10km以上 4 81 1015
20 06:50 不定 1 10km以上 4 75 1015
20 06:20 不定 1 10km以上 4 75 1015
20 05:50 1 10km以上 4 75 1015
20 05:20 不定 1 10km以上 4 75 1015
20 04:50 不定 1 10km以上 4 75 1015
20 04:20 不定 2 10km以上 5 70 1015
20 03:50 不定 1 10km以上 5 70 1015
20 03:20 不定 2 10km以上 5 70 1016
20 02:50 2 10km以上 5 70 1016
20 02:20 不定 2 10km以上 5 70 1016
20 01:50 2 10km以上 5 70 1016
20 01:20 2 10km以上 5 70 1016
20 00:50 2 10km以上 5 70 1016
20 00:20 2 10km以上 5 70 1016
19 23:50 2 10km以上 5 70 1016
19 23:20 2 10km以上 5 70 1016
19 22:50 3 10km以上 5 70 1016
19 22:20 3 10km以上 5 70 1016
19 21:50 3 10km以上 5 70 1017
19 21:20 3 10km以上 5 70 1017
19 20:50 3 10km以上 5 70 1017
19 20:20 3 10km以上 5 70 1017
19 19:50 3 10km以上 5 75 1017
19 19:20 2 10km以上 5 75 1017
19 18:50 3 10km以上 5 75 1016
19 18:20 3 10km以上 5 75 1016
19 17:50 3 10km以上 6 70 1016
19 17:20 3 10km以上 6 70 1016
19 16:50 北北東 4 10km以上 6 70 1015
19 16:20 北北東 5 10km以上 6 65 1015
19 15:50 北北東 5 10km以上 7 66 1015
19 15:20 北東 5 10km以上 7 66 1015
19 14:50 北東 5 10km以上 7 66 1015
19 14:20 北東 5 10km以上 7 66 1015
19 13:50 北東 6 10km以上 8 61 1015
19 13:20 東北東 6 10km以上 7 66 1015
LSGG 211150Z VRB02KT 8000 OVC011 06/03 Q1009 NOSIG
LSGG 211120Z VRB01KT 8000 OVC011 06/03 Q1009 NOSIG
LSGG 211050Z 36003KT 310V050 8000 OVC011 06/03 Q1010 NOSIG
LSGG 211020Z VRB01KT 8000 OVC011 05/03 Q1010 NOSIG
LSGG 210950Z VRB02KT 7000 OVC011 05/03 Q1010 NOSIG
LSGG 210920Z 02003KT 7000 OVC011 05/03 Q1010 NOSIG
LSGG 210850Z VRB02KT 7000 OVC011 05/03 Q1010 NOSIG
LSGG 210820Z VRB01KT 7000 OVC011 05/03 Q1010 NOSIG
LSGG 210750Z VRB02KT 7000 OVC012 05/03 Q1010 NOSIG
LSGG 210720Z VRB02KT 8000 OVC012 05/03 Q1010 NOSIG
LSGG 210650Z VRB01KT 8000 OVC012 05/03 Q1010 NOSIG
LSGG 210620Z VRB01KT 7000 OVC013 05/03 Q1010 NOSIG
LSGG 210550Z VRB01KT 7000 OVC013 05/03 Q1010 NOSIG
LSGG 210520Z 00000KT 8000 OVC012 05/03 Q1010 NOSIG
LSGG 210450Z VRB01KT 7000 OVC013 05/03 Q1010 NOSIG
LSGG 210420Z AUTO 36001KT 8000 OVC013 05/03 Q1010 NOSIG
LSGG 210350Z AUTO VRB02KT 8000 OVC012 05/03 Q1010 NOSIG
LSGG 210320Z AUTO 01001KT 8000 OVC012 05/03 Q1010 NOSIG
LSGG 210250Z AUTO VRB01KT 7000 OVC012 05/03 Q1010 NOSIG
LSGG 210220Z AUTO VRB01KT 9000 OVC012 05/03 Q1010 NOSIG
LSGG 210150Z AUTO VRB01KT 9000 OVC013 05/03 Q1011 NOSIG
LSGG 210120Z AUTO 02002KT 9999 BKN013 05/03 Q1011 NOSIG
LSGG 210050Z AUTO VRB01KT 9000 OVC014 05/03 Q1011 NOSIG
LSGG 210020Z AUTO VRB01KT 9999 BKN013 05/02 Q1011 NOSIG
LSGG 202350Z AUTO VRB01KT 9999 OVC013 05/02 Q1011 NOSIG
LSGG 202320Z AUTO VRB02KT 9999 OVC014 05/02 Q1011 NOSIG
LSGG 202250Z AUTO 01003KT 9999 OVC014 05/02 Q1011 NOSIG
LSGG 202220Z VRB03KT 9999 OVC015 05/02 Q1011 NOSIG
LSGG 202150Z 01003KT 9999 OVC015 05/02 Q1011 NOSIG
LSGG 202120Z 02003KT 9999 OVC016 05/02 Q1011 NOSIG
LSGG 202050Z 01002KT 9999 OVC017 05/02 Q1011 NOSIG
LSGG 202020Z VRB03KT 9999 OVC017 05/02 Q1011 NOSIG
LSGG 201950Z 03003KT 9999 OVC017 05/02 Q1011 NOSIG
LSGG 201920Z VRB02KT 9999 OVC017 05/02 Q1012 NOSIG
LSGG 201850Z VRB02KT 9999 OVC018 06/02 Q1012 NOSIG
LSGG 201820Z 34002KT 9999 BKN018 06/02 Q1012 NOSIG
LSGG 201750Z VRB02KT 9999 BKN020 06/02 Q1012 NOSIG
LSGG 201720Z VRB02KT 9999 BKN020 06/02 Q1012 NOSIG
LSGG 201650Z VRB01KT 9999 BKN020 06/02 Q1012 NOSIG
LSGG 201620Z 02003KT 9999 BKN020 06/02 Q1012 NOSIG
LSGG 201550Z VRB02KT 9999 BKN020 06/02 Q1012 NOSIG
LSGG 201520Z 06004KT 030V130 9999 SCT025 06/02 Q1012 NOSIG
LSGG 201450Z 07004KT 040V100 9999 SCT025 06/02 Q1012 NOSIG
LSGG 201420Z 05003KT 330V090 9999 SCT025 06/02 Q1012 NOSIG
LSGG 201350Z 06005KT 9999 SCT025 06/02 Q1012 NOSIG
LSGG 201320Z 04005KT 010V080 9999 BKN022 06/02 Q1012 NOSIG
LSGG 201250Z 08006KT 050V120 9999 BKN022 06/01 Q1013 NOSIG
LSGG 201220Z VRB03KT 9999 BKN025 06/01 Q1013 NOSIG
LSGG 201150Z VRB03KT 9999 BKN025 06/01 Q1013 NOSIG
LSGG 201120Z VRB02KT 9999 BKN025 06/00 Q1013 NOSIG
LSGG 201050Z VRB03KT 9999 BKN025 06/01 Q1014 NOSIG
LSGG 201020Z VRB02KT 9999 BKN025 06/00 Q1014 NOSIG
LSGG 200950Z VRB02KT 9999 BKN025 05/00 Q1014 NOSIG
LSGG 200920Z VRB03KT 9999 BKN025 05/00 Q1014 NOSIG
LSGG 200850Z VRB02KT 9999 BKN025 05/00 Q1014 NOSIG
LSGG 200820Z VRB01KT 9999 BKN025 05/00 Q1014 NOSIG
LSGG 200750Z VRB01KT 9999 BKN025 04/00 Q1014 NOSIG
LSGG 200720Z 01002KT 9999 BKN025 04/00 Q1014 NOSIG
LSGG 200650Z 34002KT 9999 OVC025 04/01 Q1014 NOSIG
LSGG 200620Z VRB01KT 9999 OVC025 04/01 Q1015 NOSIG
LSGG 200550Z VRB01KT 9999 OVC020 04/00 Q1015 NOSIG
LSGG 200520Z VRB01KT 9999 OVC020 04/00 Q1015 NOSIG
LSGG 200450Z 01002KT 9999 OVC020 04/M00 Q1015 NOSIG
LSGG 200420Z AUTO VRB02KT 9999 BKN024 04/00 Q1015 NOSIG
LSGG 200350Z AUTO VRB02KT 9999 BKN025 04/M00 Q1015 NOSIG
LSGG 200320Z AUTO VRB03KT 9999 BKN025 05/00 Q1015 NOSIG
LSGG 200250Z AUTO VRB02KT 9999 BKN026 05/00 Q1015 NOSIG
LSGG 200220Z AUTO VRB03KT 9999 BKN025 05/M00 Q1016 NOSIG
LSGG 200150Z AUTO 01003KT 330V040 9999 OVC025 05/00 Q1016 NOSIG
LSGG 200120Z AUTO VRB03KT 9999 BKN024 05/00 Q1016 NOSIG
LSGG 200050Z AUTO 01004KT 9999 OVC024 05/00 Q1016 NOSIG
LSGG 200020Z AUTO 36004KT 330V040 9999 OVC024 05/00 Q1016 NOSIG
LSGG 192350Z AUTO 36003KT 310V040 9999 OVC025 05/M00 Q1016 NOSIG
LSGG 192320Z AUTO 36004KT 9999 OVC026 05/00 Q1016 NOSIG
LSGG 192250Z AUTO 36003KT 330V030 9999 BKN025 05/00 Q1016 NOSIG
LSGG 192220Z 36003KT 320V040 9999 OVC027 05/00 Q1016 NOSIG
LSGG 192150Z 36005KT 320V040 9999 OVC028 05/M00 Q1016 NOSIG
LSGG 192120Z 01005KT 330V060 9999 OVC028 05/M00 Q1016 NOSIG
LSGG 192050Z 01005KT 9999 OVC028 05/M00 Q1017 NOSIG
LSGG 192020Z 01005KT 9999 OVC028 05/M00 Q1017 NOSIG
LSGG 191950Z 01005KT 9999 OVC028 05/00 Q1017 NOSIG
LSGG 191920Z 01005KT 9999 OVC028 05/00 Q1017 NOSIG
LSGG 191850Z 36005KT 330V040 9999 BKN027 05/01 Q1017 NOSIG
LSGG 191820Z 36004KT 9999 BKN027 05/01 Q1017 NOSIG
LSGG 191750Z 36005KT 9999 BKN025 05/01 Q1016 NOSIG
LSGG 191720Z 36005KT 330V050 9999 BKN025 05/01 Q1016 NOSIG
LSGG 191650Z 01005KT 340V050 9999 BKN028 06/01 Q1016 NOSIG
LSGG 191620Z 01006KT 9999 BKN030 06/01 Q1016 NOSIG
LSGG 191550Z 02007KT 9999 BKN030 06/01 Q1015 NOSIG
LSGG 191520Z 03009KT 9999 BKN030 06/00 Q1015 NOSIG
LSGG 191450Z 03009KT 9999 BKN030 07/01 Q1015 NOSIG
LSGG 191420Z 04010KT 9999 BKN030 07/01 Q1015 NOSIG
LSGG 191350Z 04010KT 9999 BKN030 07/01 Q1015 NOSIG
LSGG 191320Z 04009KT 9999 BKN030 07/01 Q1015 NOSIG
LSGG 191250Z 04011KT 9999 FEW025 BKN032 08/01 Q1015 NOSIG
LSGG 191220Z 06012KT 9999 FEW025 SCT034 07/01 Q1015 NOSIG